Aviation Digital Data Service (ADDS)

Output produced by METARs form (1352 UTC 26 May 2018)
found at http://www.aviationweather.gov/adds/metars/
 
TAF MZBZ 261100Z 2612/2712 29005KT 9999 SCT022 
     BECMG 2620/2622 08007KT 
     PROB30 
     TEMPO 2622/2704 4000 TSRA SCT012CB BKN035
       
TAF MZBZ 261100Z 2612/2712 29005KT 9999 SCT022 
     BECMG 2620/2622 08007KT 
     PROB30 
     TEMPO 2622/2704 4000 TSRA SCT012CB BKN035